Time;durP1;ratioP1;P1;durP2;ratioP2;P2;SDS_P1;SDS_P2;PMS_P1;PMS_P2;Temp;Humidity;BMP_temperature;BMP_pressure;BME280_temperature;BME280_humidity;BME280_pressure;Samples;Min_cycle;Max_cycle;Signal;HPM_P1;HPM_P2
2023/01/20 00:00:08;;;;;;;0.52;0.32;;;;;;;7.39;81.60;93015.69;5004531;28;20056;-88
2023/01/20 00:02:35;;;;;;;0.98;0.63;;;;;;;7.38;80.50;93011.47;5004278;28;20037;-88
2023/01/20 00:05:01;;;;;;;2.55;0.57;;;;;;;7.42;80.00;93025.66;5004508;28;20082;-88
2023/01/20 00:07:27;;;;;;;1.27;0.65;;;;;;;7.47;80.25;93023.94;5003100;28;20339;-88
2023/01/20 00:09:52;;;;;;;2.85;0.80;;;;;;;7.55;81.72;93016.00;5004625;28;20026;-88
2023/01/20 00:12:18;;;;;;;4.07;1.00;;;;;;;7.63;82.49;93027.66;5004762;28;20022;-88
2023/01/20 00:14:43;;;;;;;5.03;1.20;;;;;;;7.72;82.99;93038.28;5004133;28;20253;-88
2023/01/20 00:17:08;;;;;;;3.30;1.33;;;;;;;7.73;83.29;92968.97;5003999;28;20022;-89
2023/01/20 00:19:34;;;;;;;4.28;0.88;;;;;;;7.77;83.51;92863.78;5002603;28;20309;-88
2023/01/20 00:21:59;;;;;;;1.63;0.90;;;;;;;7.67;83.82;92842.94;5002757;28;20283;-88
2023/01/20 00:24:25;;;;;;;0.68;0.50;;;;;;;7.58;82.73;92845.63;5002686;28;20030;-88
2023/01/20 00:26:51;;;;;;;2.70;0.47;;;;;;;7.54;82.08;92854.53;5003940;28;20037;-88
2023/01/20 00:29:16;;;;;;;2.10;0.47;;;;;;;7.47;82.66;92864.84;5002801;28;20256;-88
2023/01/20 00:31:41;;;;;;;2.03;0.40;;;;;;;7.44;82.34;92855.66;5007574;28;20030;-88
2023/01/20 00:34:09;;;;;;;2.03;0.70;;;;;;;7.40;82.07;92828.22;5007635;28;20216;-88
2023/01/20 00:36:35;;;;;;;2.20;0.55;;;;;;;7.40;81.63;92822.94;5007580;28;20069;-89
2023/01/20 00:39:01;;;;;;;1.63;0.60;;;;;;;7.40;81.54;92807.03;5007503;28;20034;-88
2023/01/20 00:41:27;;;;;;;4.53;1.15;;;;;;;7.39;80.40;92785.03;5006256;28;20065;-89
2023/01/20 00:43:52;;;;;;;3.38;0.93;;;;;;;7.43;78.73;92779.88;5007226;28;20105;-88
2023/01/20 00:46:18;;;;;;;2.92;0.63;;;;;;;7.54;78.16;92767.81;5007247;28;20027;-89
2023/01/20 00:48:43;;;;;;;1.08;0.40;;;;;;;7.70;76.28;92773.34;5006242;28;20057;-89
2023/01/20 00:51:09;;;;;;;1.88;0.30;;;;;;;7.95;72.47;92779.56;5007337;28;20026;-88
2023/01/20 00:53:35;;;;;;;1.38;0.45;;;;;;;8.22;71.43;92767.69;5006084;28;20202;-88
2023/01/20 00:56:01;;;;;;;4.88;0.40;;;;;;;8.37;70.67;92753.03;5006985;28;20228;-88
2023/01/20 00:58:27;;;;;;;0.38;0.30;;;;;;;8.63;68.88;92766.13;5007037;28;20061;-88
2023/01/20 01:00:54;;;;;;;1.38;0.30;;;;;;;8.78;68.97;92777.22;5006632;28;20030;-88
2023/01/20 01:03:20;;;;;;;3.75;0.40;;;;;;;8.89;67.99;92774.94;5007037;28;20026;-88
2023/01/20 01:05:45;;;;;;;4.97;0.30;;;;;;;9.02;65.84;92745.41;5006760;28;20026;-88
2023/01/20 01:08:11;;;;;;;2.00;0.60;;;;;;;9.17;64.91;92759.16;5006904;28;20045;-88
2023/01/20 01:10:37;;;;;;;2.30;0.55;;;;;;;9.23;65.46;92747.97;5006815;28;20037;-88
2023/01/20 01:13:03;;;;;;;4.20;0.57;;;;;;;9.34;65.55;92751.00;5005667;28;20309;-88
2023/01/20 01:15:29;;;;;;;6.88;0.98;;;;;;;9.42;62.58;92763.41;5006790;28;20030;-89
2023/01/20 01:17:56;;;;;;;3.67;0.50;;;;;;;9.51;63.36;92759.84;5006703;28;20061;-88
2023/01/20 01:20:22;;;;;;;3.30;0.43;;;;;;;9.57;64.06;92758.53;5005794;28;20014;-88
2023/01/20 01:22:47;;;;;;;3.92;0.40;;;;;;;9.60;62.78;92776.47;5006860;28;20022;-88
2023/01/20 01:25:13;;;;;;;3.45;0.80;;;;;;;9.70;61.98;92796.53;5005548;28;20152;-89
2023/01/20 01:27:38;;;;;;;7.53;0.57;;;;;;;9.77;61.52;92780.78;5005610;28;20100;-89
2023/01/20 01:30:05;;;;;;;0.65;0.30;;;;;;;9.80;61.42;92791.53;5005424;28;20041;-89
2023/01/20 01:32:31;;;;;;;1.35;0.38;;;;;;;9.86;61.23;92764.72;5006520;28;20030;-88
2023/01/20 01:34:56;;;;;;;0.20;0.20;;;;;;;9.89;61.70;92770.16;5005389;28;20033;-88
2023/01/20 01:37:22;;;;;;;1.85;0.40;;;;;;;9.94;61.19;92782.44;5006422;28;20050;-89
2023/01/20 01:39:47;;;;;;;2.83;0.38;;;;;;;9.99;60.70;92769.69;5006677;28;20026;-87
2023/01/20 01:42:28;;;;;;;4.57;0.40;;;;;;;10.04;61.16;92771.34;4983009;28;20108;-88
2023/01/20 01:45:08;;;;;;;0.63;0.30;;;;;;;10.07;64.04;92783.19;5006465;28;20247;-87
2023/01/20 01:47:34;;;;;;;3.15;0.43;;;;;;;9.99;66.20;92801.63;5004899;28;20033;-89
2023/01/20 01:50:00;;;;;;;1.23;0.50;;;;;;;9.87;67.36;92809.63;5006030;28;20068;-87
2023/01/20 01:52:25;;;;;;;1.80;0.47;;;;;;;9.75;68.45;92810.41;5006252;28;20022;-89
2023/01/20 01:54:52;;;;;;;1.65;0.60;;;;;;;9.44;69.67;92813.56;5006579;28;20022;-89
2023/01/20 01:57:18;;;;;;;1.10;0.50;;;;;;;9.30;70.84;92799.81;5006351;28;20036;-89
2023/01/20 01:59:44;;;;;;;1.40;0.57;;;;;;;9.18;71.36;92795.25;5005160;28;20336;-89
2023/01/20 02:02:09;;;;;;;2.30;0.75;;;;;;;9.03;71.72;92810.72;5006142;28;20089;-91
2023/01/20 02:04:37;;;;;;;1.90;0.70;;;;;;;8.85;72.49;92798.72;5005990;28;20317;-89
2023/01/20 02:07:10;;;;;;;0.68;0.47;;;;;;;8.71;72.99;92809.66;5005846;28;20026;-88
2023/01/20 02:09:37;;;;;;;1.65;0.60;;;;;;;8.62;73.50;92814.25;5005045;28;20133;-89
2023/01/20 02:12:14;;;;;;;1.60;0.60;;;;;;;8.56;73.94;92795.06;5004820;28;20026;-89
2023/01/20 02:14:46;;;;;;;0.45;0.35;;;;;;;8.51;74.40;92775.91;5006020;28;20205;-89
2023/01/20 02:17:34;;;;;;;2.40;0.68;;;;;;;8.46;74.79;92792.06;5004626;28;20065;-89
2023/01/20 02:20:33;;;;;;;1.30;0.57;;;;;;;8.40;74.81;92791.44;5006030;28;20034;-89
2023/01/20 02:23:20;;;;;;;0.95;0.45;;;;;;;8.35;75.09;92794.31;5005672;28;20041;-88
2023/01/20 02:25:54;;;;;;;1.30;0.57;;;;;;;8.31;75.85;92780.13;5005762;28;20371;-89
2023/01/20 02:28:29;;;;;;;2.60;0.60;;;;;;;8.29;75.78;92777.00;5005006;28;20049;-88
2023/01/20 02:31:24;;;;;;;0.52;0.32;;;;;;;8.23;76.02;92785.16;5005897;28;20053;-89
2023/01/20 02:34:03;;;;;;;0.88;0.70;;;;;;;8.20;76.34;92779.72;5004832;28;20022;-88
2023/01/20 02:36:46;;;;;;;1.00;0.50;;;;;;;8.13;76.34;92769.63;5005403;28;20042;-89
2023/01/20 02:39:29;;;;;;;1.58;0.50;;;;;;;8.14;76.70;92786.31;5007907;28;20034;-87
2023/01/20 02:42:22;;;;;;;1.50;0.50;;;;;;;8.08;76.51;92761.88;5014302;28;20055;-86
2023/01/20 02:44:52;;;;;;;;;;;;;;;8.11;76.50;92771.06;5012629;28;20048;-88
2023/01/20 02:47:52;;;;;;;1.55;0.60;;;;;;;8.05;76.91;92746.56;5005139;28;19938;-88
2023/01/20 02:50:43;;;;;;;0.98;0.50;;;;;;;8.04;77.25;92747.69;4964821;28;20044;-87
2023/01/20 02:53:13;;;;;;;1.83;0.60;;;;;;;8.02;77.29;92739.28;5004885;28;20026;-88
2023/01/20 02:55:46;;;;;;;3.15;0.73;;;;;;;7.98;77.24;92733.84;5007517;28;20018;-88
2023/01/20 02:58:36;;;;;;;2.10;0.73;;;;;;;7.97;77.48;92723.53;5007388;28;20036;-88
2023/01/20 03:01:09;;;;;;;2.20;0.73;;;;;;;7.96;77.66;92727.31;5007234;28;20027;-88
2023/01/20 03:03:36;;;;;;;;;;;;;;;7.95;77.72;92723.84;5006681;28;20030;-88
2023/01/20 03:06:07;;;;;;;2.03;0.63;;;;;;;7.93;77.80;92738.56;5004798;28;19917;-87
2023/01/20 03:08:34;;;;;;;1.33;0.57;;;;;;;7.92;78.07;92740.44;5003555;28;20030;-88
2023/01/20 03:11:04;;;;;;;2.47;0.52;;;;;;;7.94;78.01;92740.13;5003537;28;20105;-86
2023/01/20 03:13:38;;;;;;;1.38;0.50;;;;;;;7.96;78.13;92738.69;5004776;28;20030;-88
2023/01/20 03:16:15;;;;;;;2.88;1.05;;;;;;;8.02;77.93;92749.91;5003613;28;20044;-87
2023/01/20 03:18:40;;;;;;;2.03;0.95;;;;;;;7.99;78.09;92738.03;5004412;28;20045;-87
2023/01/20 03:21:08;;;;;;;2.03;0.80;;;;;;;7.94;78.20;92756.03;5004337;28;20022;-87
2023/01/20 03:23:36;;;;;;;1.95;0.68;;;;;;;7.95;78.21;92754.94;5003291;28;20023;-88
2023/01/20 03:26:07;;;;;;;1.25;0.40;;;;;;;7.95;78.23;92746.97;5004465;28;20089;-87
2023/01/20 03:28:32;;;;;;;2.33;0.70;;;;;;;7.95;78.36;92744.31;5004298;28;20033;-87
2023/01/20 03:30:59;;;;;;;1.70;0.82;;;;;;;7.94;78.06;92756.03;5004167;28;20026;-88
2023/01/20 03:33:25;;;;;;;1.95;0.88;;;;;;;7.95;77.91;92746.97;5004304;28;20026;-88
2023/01/20 03:35:51;;;;;;;2.67;1.05;;;;;;;7.92;78.26;92747.63;5004633;28;20378;-88
2023/01/20 03:38:17;;;;;;;2.13;0.93;;;;;;;7.93;78.51;92755.25;5004330;28;20109;-89
2023/01/20 03:40:52;;;;;;;2.83;0.90;;;;;;;7.94;78.88;92738.25;5004420;28;20022;-89
2023/01/20 03:43:37;;;;;;;1.23;0.90;;;;;;;7.97;79.04;92750.84;5003339;28;20033;-89
2023/01/20 03:46:14;;;;;;;2.25;0.80;;;;;;;7.97;79.23;92742.88;5004049;28;20031;-89
2023/01/20 03:48:50;;;;;;;2.72;1.05;;;;;;;7.99;78.91;92739.91;5004067;28;20343;-89
2023/01/20 03:51:45;;;;;;;1.73;0.85;;;;;;;8.00;79.09;92718.38;5004083;28;20022;-89
2023/01/20 03:54:17;;;;;;;2.65;0.88;;;;;;;8.02;79.19;92710.09;5004029;28;20054;-89
2023/01/20 03:57:07;;;;;;;3.47;0.90;;;;;;;8.03;79.34;92695.72;5002877;28;20022;-89
2023/01/20 03:59:36;;;;;;;3.80;0.90;;;;;;;8.05;79.32;92696.16;5003913;28;20030;-89
2023/01/20 04:02:04;;;;;;;4.57;0.82;;;;;;;8.06;79.61;92694.28;5003678;28;20042;-85
2023/01/20 04:04:35;;;;;;;3.05;0.60;;;;;;;8.09;80.00;92688.34;5003145;28;20292;-86
2023/01/20 04:07:03;;;;;;;2.75;0.90;;;;;;;8.10;79.85;92689.88;5003456;28;20034;-85
2023/01/20 04:09:34;;;;;;;7.55;1.13;;;;;;;8.11;79.90;92692.22;5002254;28;20248;-84
2023/01/20 04:11:59;;;;;;;3.00;0.90;;;;;;;8.12;80.04;92683.16;5003332;28;20313;-85
2023/01/20 04:14:25;;;;;;;3.58;1.10;;;;;;;8.12;80.16;92680.50;5003558;28;20030;-85
2023/01/20 04:16:53;;;;;;;3.30;0.80;;;;;;;8.15;79.86;92671.88;5003509;28;20324;-85
2023/01/20 04:19:19;;;;;;;2.35;0.85;;;;;;;8.18;79.70;92671.22;5002599;28;20026;-87
2023/01/20 04:21:52;;;;;;;9.38;1.20;;;;;;;8.19;79.44;92654.19;5002984;28;20054;-88
2023/01/20 04:24:36;;;;;;;2.58;0.80;;;;;;;8.20;79.69;92657.63;5003663;28;20044;-88
2023/01/20 04:27:01;;;;;;;2.50;1.00;;;;;;;8.20;79.41;92650.44;5002437;28;20320;-89
2023/01/20 04:29:27;;;;;;;1.67;0.70;;;;;;;8.23;79.12;92662.28;5003489;28;20029;-89
2023/01/20 04:32:00;;;;;;;2.85;0.88;;;;;;;8.21;79.32;92659.94;5003396;28;20022;-88
2023/01/20 04:34:34;;;;;;;7.75;0.98;;;;;;;8.19;79.48;92659.50;5003530;28;20069;-88
2023/01/20 04:37:07;;;;;;;2.10;0.70;;;;;;;8.21;79.31;92659.94;5002322;28;20113;-88
2023/01/20 04:39:33;;;;;;;4.13;1.20;;;;;;;8.21;79.37;92659.94;5003673;28;20300;-90
2023/01/20 04:41:59;;;;;;;3.30;1.35;;;;;;;8.21;79.74;92659.94;5003630;28;20073;-89
2023/01/20 04:44:25;;;;;;;3.60;0.93;;;;;;;8.21;79.67;92673.22;5003775;28;20117;-88
2023/01/20 04:46:55;;;;;;;4.85;1.85;;;;;;;8.23;79.56;92675.56;5003095;28;20114;-87
2023/01/20 04:49:21;;;;;;;8.15;1.42;;;;;;;8.22;79.72;92677.44;5003476;28;20244;-87
2023/01/20 04:51:46;;;;;;;5.32;1.45;;;;;;;8.24;79.89;92680.53;5003292;28;20076;-87
2023/01/20 04:54:11;;;;;;;2.63;1.00;;;;;;;8.22;80.07;92674.78;5003187;28;20309;-87
2023/01/20 04:56:37;;;;;;;4.78;1.98;;;;;;;8.21;80.22;92677.75;5002938;28;20066;-87
2023/01/20 04:59:03;;;;;;;5.97;3.03;;;;;;;8.21;80.29;92686.50;5003051;28;20022;-87
2023/01/20 05:01:29;;;;;;;4.50;1.80;;;;;;;8.19;79.78;92688.69;5003013;28;20325;-87
2023/01/20 05:03:55;;;;;;;2.30;0.90;;;;;;;8.13;79.64;92707.81;5003240;28;20037;-86
2023/01/20 05:06:20;;;;;;;2.38;0.90;;;;;;;8.07;79.81;92714.41;5003329;28;20022;-86
2023/01/20 05:08:46;;;;;;;3.35;1.33;;;;;;;8.07;79.75;92717.06;5003186;28;20141;-86
2023/01/20 05:11:11;;;;;;;16.33;2.78;;;;;;;7.95;80.17;92710.59;5003215;28;20041;-86
2023/01/20 05:13:38;;;;;;;8.43;2.80;;;;;;;7.83;80.89;92708.66;5003134;28;20094;-86
2023/01/20 05:16:08;;;;;;;11.32;3.40;;;;;;;7.67;82.17;92718.28;5003071;28;20205;-87
2023/01/20 05:18:34;;;;;;;9.10;2.63;;;;;;;7.50;82.97;92707.78;5006352;28;20369;-87
2023/01/20 05:21:00;;;;;;;5.43;2.35;;;;;;;7.35;83.50;92706.47;5006620;28;20022;-86
2023/01/20 05:23:25;;;;;;;7.72;2.40;;;;;;;7.22;84.20;92709.03;5006349;28;20053;-87
2023/01/20 05:25:52;;;;;;;8.32;2.40;;;;;;;7.15;85.25;92702.69;5006124;28;20215;-87
2023/01/20 05:28:18;;;;;;;4.63;2.15;;;;;;;7.11;85.64;92694.59;5006443;28;20216;-87
2023/01/20 05:30:43;;;;;;;6.07;2.42;;;;;;;7.08;86.10;92727.00;5006129;28;20026;-87
2023/01/20 05:33:09;;;;;;;10.55;2.88;;;;;;;7.07;86.41;92730.00;5006384;28;20026;-88
2023/01/20 05:35:37;;;;;;;4.78;2.72;;;;;;;7.13;87.04;92736.66;5006282;28;20097;-88
2023/01/20 05:38:02;;;;;;;5.50;2.85;;;;;;;7.19;86.96;92735.41;5004737;28;20069;-89
2023/01/20 05:40:27;;;;;;;10.00;2.83;;;;;;;7.25;86.09;92725.41;5006565;28;20077;-90
2023/01/20 05:42:53;;;;;;;8.95;2.63;;;;;;;7.21;85.70;92725.25;5009001;28;20026;-87
2023/01/20 05:45:18;;;;;;;9.45;2.55;;;;;;;7.24;85.52;92724.59;5009030;28;20026;-87
2023/01/20 05:47:44;;;;;;;5.65;1.90;;;;;;;7.24;85.74;92719.31;5008293;28;20102;-87
2023/01/20 05:50:10;;;;;;;3.35;1.60;;;;;;;7.31;85.67;92724.91;5007134;28;20093;-86
2023/01/20 05:52:36;;;;;;;4.80;2.08;;;;;;;7.36;85.38;92703.50;5006318;28;20246;-87
2023/01/20 05:55:01;;;;;;;9.23;2.45;;;;;;;7.43;85.37;92705.66;5007012;28;20019;-86
2023/01/20 05:57:27;;;;;;;10.65;3.75;;;;;;;7.47;85.39;92688.00;5006256;28;20094;-87
2023/01/20 05:59:54;;;;;;;9.82;3.95;;;;;;;7.52;85.36;92695.75;5004510;28;20023;-87
2023/01/20 06:02:20;;;;;;;8.88;3.35;;;;;;;7.57;85.22;92716.81;5005809;28;20023;-87
2023/01/20 06:04:45;;;;;;;9.63;3.47;;;;;;;7.64;84.97;92710.97;5005498;28;20040;-87
2023/01/20 06:07:11;;;;;;;8.57;4.43;;;;;;;7.69;84.71;92710.78;5004261;28;20105;-88
2023/01/20 06:09:36;;;;;;;9.60;4.55;;;;;;;7.72;84.76;92717.31;5004245;28;20029;-88
2023/01/20 06:12:02;;;;;;;9.90;4.90;;;;;;;7.74;84.62;92731.03;5005783;28;20038;-88
2023/01/20 06:14:27;;;;;;;11.75;5.22;;;;;;;7.75;85.13;92720.09;5005415;28;20339;-88
2023/01/20 06:16:53;;;;;;;10.10;4.63;;;;;;;7.78;84.35;92719.47;5005665;28;20037;-88
2023/01/20 06:19:18;;;;;;;10.38;5.97;;;;;;;7.82;84.02;92720.38;5005687;28;20343;-88
2023/01/20 06:21:43;;;;;;;6.85;3.28;;;;;;;7.83;83.94;92726.44;5005403;28;20145;-88
2023/01/20 06:24:09;;;;;;;10.20;3.85;;;;;;;7.85;83.93;92732.19;5005206;28;20058;-87
2023/01/20 06:26:34;;;;;;;14.07;6.97;;;;;;;7.87;83.90;92735.31;5005345;28;20325;-88
2023/01/20 06:29:00;;;;;;;14.23;6.93;;;;;;;7.88;83.98;92709.56;5005156;28;20276;-88
2023/01/20 06:31:27;;;;;;;8.80;4.57;;;;;;;7.92;83.93;92684.72;5005445;28;20026;-88
2023/01/20 06:33:54;;;;;;;9.38;4.60;;;;;;;7.87;83.78;92697.41;5003833;28;20022;-88
2023/01/20 06:36:19;;;;;;;27.40;12.75;;;;;;;7.79;83.52;92689.16;5004928;28;20026;-88
2023/01/20 06:38:49;;;;;;;16.40;7.75;;;;;;;7.79;83.87;92691.06;5003471;28;20118;-88
2023/01/20 06:41:15;;;;;;;10.98;4.03;;;;;;;7.75;83.84;92690.91;5004858;28;20026;-88
2023/01/20 06:43:41;;;;;;;7.38;3.53;;;;;;;7.73;83.44;92682.50;5004973;28;20407;-88
2023/01/20 06:46:10;;;;;;;8.70;2.95;;;;;;;7.70;82.89;92693.78;5004991;28;20260;-88
2023/01/20 06:48:36;;;;;;;10.88;2.58;;;;;;;7.66;82.51;92697.41;5004717;28;20030;-88
2023/01/20 06:51:03;;;;;;;7.70;3.10;;;;;;;7.66;82.35;92687.56;5004773;28;20027;-89
2023/01/20 06:53:28;;;;;;;7.88;2.85;;;;;;;7.64;82.61;92689.75;5005370;28;20053;-88
2023/01/20 06:55:55;;;;;;;5.70;2.88;;;;;;;7.66;82.39;92702.72;5004943;28;20026;-87
2023/01/20 06:58:23;;;;;;;6.65;2.90;;;;;;;7.67;81.91;92691.75;5003508;28;20029;-88
2023/01/20 07:00:48;;;;;;;11.63;4.78;;;;;;;7.64;82.12;92689.75;5004559;28;20029;-89
2023/01/20 07:03:14;;;;;;;10.82;3.85;;;;;;;7.59;82.98;92692.59;5005103;28;20018;-88
2023/01/20 07:05:39;;;;;;;9.95;3.60;;;;;;;7.64;83.07;92668.53;5005086;28;20022;-88
2023/01/20 07:08:05;;;;;;;20.33;7.53;;;;;;;7.71;83.40;92674.09;5004167;28;20029;-89
2023/01/20 07:10:30;;;;;;;21.13;8.15;;;;;;;7.73;83.63;92677.19;5005258;28;20093;-88
2023/01/20 07:12:55;;;;;;;7.32;3.28;;;;;;;7.64;84.14;92673.84;5004991;28;20041;-87
2023/01/20 07:15:21;;;;;;;7.32;3.38;;;;;;;7.69;83.95;92681.59;5004813;28;20085;-88
2023/01/20 07:17:46;;;;;;;8.93;3.72;;;;;;;7.73;84.15;92682.50;5003283;28;20022;-88
2023/01/20 07:20:12;;;;;;;27.60;9.30;;;;;;;7.70;84.33;92687.69;5004869;28;20022;-88
2023/01/20 07:22:37;;;;;;;24.33;7.70;;;;;;;7.66;84.54;92682.25;5005087;28;20045;-88
2023/01/20 07:25:03;;;;;;;18.25;5.82;;;;;;;7.62;84.43;92684.78;5005222;28;20367;-88
2023/01/20 07:27:28;;;;;;;29.67;6.60;;;;;;;7.65;84.49;92696.59;5004848;28;20030;-86
2023/01/20 07:29:54;;;;;;;10.77;4.32;;;;;;;7.64;84.44;92700.38;5004088;28;20038;-86
2023/01/20 07:32:19;;;;;;;14.18;4.70;;;;;;;7.67;84.57;92698.94;5004207;28;20064;-87
2023/01/20 07:34:45;;;;;;;5.55;2.90;;;;;;;7.66;84.71;92692.88;5006006;28;20259;-86
2023/01/20 07:37:10;;;;;;;5.75;3.03;;;;;;;7.74;84.79;92692.03;5006109;28;20505;-86
2023/01/20 07:39:35;;;;;;;5.22;2.83;;;;;;;7.79;84.73;92681.22;5003565;28;20049;-87
2023/01/20 07:42:01;;;;;;;9.40;2.85;;;;;;;7.82;84.06;92685.13;5003737;28;20096;-86
2023/01/20 07:44:26;;;;;;;7.07;2.80;;;;;;;7.84;83.53;92669.66;5003504;28;20084;-86
2023/01/20 07:46:53;;;;;;;7.32;2.30;;;;;;;7.85;83.41;92676.50;5003556;28;20098;-87
2023/01/20 07:49:23;;;;;;;5.53;2.00;;;;;;;7.89;82.95;92672.09;5004408;28;20046;-88
2023/01/20 07:52:00;;;;;;;5.93;2.30;;;;;;;7.93;82.79;92674.88;5004460;28;20054;-88
2023/01/20 07:54:37;;;;;;;;;;;;;;;;;;;;;
2023/01/20 07:57:03;;;;;;;6.35;2.15;;;;;;;7.98;81.81;92662.19;4985234;28;20077;-81
2023/01/20 07:59:29;;;;;;;9.60;2.50;;;;;;;8.04;81.31;92681.34;5003434;28;20026;-87
2023/01/20 08:01:54;;;;;;;6.85;2.75;;;;;;;8.04;81.46;92676.03;5003373;28;20072;-86
2023/01/20 08:04:19;;;;;;;7.68;3.42;;;;;;;8.02;81.58;92672.94;5003476;28;20030;-86
2023/01/20 08:06:45;;;;;;;5.97;3.15;;;;;;;7.92;81.85;92654.78;5003374;28;20205;-86
2023/01/20 08:09:13;;;;;;;8.55;3.15;;;;;;;7.92;81.95;92628.25;5003296;28;20110;-86
2023/01/20 08:11:39;;;;;;;5.75;2.97;;;;;;;7.92;81.99;92614.97;5003490;28;20331;-87
2023/01/20 08:14:04;;;;;;;7.05;2.83;;;;;;;7.89;81.28;92615.59;5003481;28;20093;-87
2023/01/20 08:16:32;;;;;;;4.47;2.10;;;;;;;7.76;80.26;92617.44;5003232;28;20094;-86
2023/01/20 08:18:57;;;;;;;2.25;1.08;;;;;;;7.66;79.14;92623.16;5003193;28;20048;-85
2023/01/20 08:21:26;;;;;;;1.67;0.93;;;;;;;7.57;79.05;92637.25;5003237;28;20018;-85
2023/01/20 08:23:54;;;;;;;5.60;1.17;;;;;;;7.51;79.44;92632.44;5001995;28;20022;-84
2023/01/20 08:26:20;;;;;;;4.18;1.45;;;;;;;7.54;80.05;92635.22;5003145;28;20022;-85
2023/01/20 08:28:46;;;;;;;3.42;1.67;;;;;;;7.60;80.66;92627.88;5002968;28;20343;-85
2023/01/20 08:31:14;;;;;;;11.88;2.55;;;;;;;7.66;80.42;92621.25;5002671;28;20236;-85
2023/01/20 08:33:41;;;;;;;4.47;1.88;;;;;;;7.74;82.08;92619.66;5002844;28;20019;-76
2023/01/20 08:36:08;;;;;;;7.07;2.15;;;;;;;7.87;82.75;92602.66;5002133;28;20014;-73
2023/01/20 08:38:34;;;;;;;4.55;2.30;;;;;;;8.00;81.56;92590.22;5002530;28;20027;-73
2023/01/20 08:41:00;;;;;;;3.33;1.58;;;;;;;8.13;80.30;92567.16;5002665;28;20030;-73
2023/01/20 08:43:26;;;;;;;5.45;1.83;;;;;;;8.20;80.64;92565.50;5002360;28;20257;-72
2023/01/20 08:46:02;;;;;;;10.45;2.10;;;;;;;8.33;79.36;92571.59;5002645;28;20022;-73
2023/01/20 08:48:28;;;;;;;3.83;1.63;;;;;;;8.40;79.79;92582.44;5002711;28;20030;-72
2023/01/20 08:50:54;;;;;;;4.80;1.80;;;;;;;8.40;79.33;92573.72;5003838;28;20022;-72
2023/01/20 08:53:19;;;;;;;7.03;1.60;;;;;;;8.45;78.44;92576.19;5006308;28;20053;-73
2023/01/20 08:55:54;;;;;;;5.05;2.10;;;;;;;8.55;78.39;92564.38;5005971;28;20308;-74
2023/01/20 08:58:20;;;;;;;8.07;3.22;;;;;;;8.58;78.21;92571.66;5006191;28;20145;-72
2023/01/20 09:00:45;;;;;;;9.82;3.22;;;;;;;8.56;78.89;92581.84;5006195;28;20110;-72
2023/01/20 09:03:11;;;;;;;7.22;3.80;;;;;;;8.57;79.83;92589.47;5006075;28;20022;-73
2023/01/20 09:05:37;;;;;;;11.90;4.28;;;;;;;8.60;79.66;92574.75;5006337;28;20045;-81
2023/01/20 09:08:02;;;;;;;10.55;4.18;;;;;;;8.63;80.73;92579.41;5006576;28;20320;-79
2023/01/20 09:10:31;;;;;;;7.68;3.47;;;;;;;8.62;80.31;92568.00;5006559;28;20029;-82
2023/01/20 09:12:56;;;;;;;7.63;2.88;;;;;;;8.64;80.59;92563.13;5005422;28;20026;-83
2023/01/20 09:15:22;;;;;;;7.38;2.88;;;;;;;8.74;80.36;92571.78;5006932;28;20029;-81
2023/01/20 09:17:47;;;;;;;6.22;3.25;;;;;;;8.83;80.23;92586.50;5006721;28;20049;-86
2023/01/20 09:20:13;;;;;;;9.32;3.15;;;;;;;8.99;79.86;92575.97;5005336;28;20392;-81
2023/01/20 09:22:39;;;;;;;8.82;2.72;;;;;;;9.12;79.43;92567.97;5006392;28;20018;-82
2023/01/20 09:25:06;;;;;;;6.25;3.17;;;;;;;9.18;78.80;92563.97;5006435;28;20018;-83
2023/01/20 09:27:32;;;;;;;6.43;2.42;;;;;;;9.23;78.70;92572.50;5006834;28;20320;-86
2023/01/20 09:29:57;;;;;;;6.00;1.92;;;;;;;9.24;78.84;92586.59;5006973;28;20072;-86
2023/01/20 09:32:23;;;;;;;7.00;2.10;;;;;;;9.32;77.57;92587.53;5006322;28;20025;-82
2023/01/20 09:34:48;;;;;;;6.75;2.05;;;;;;;9.40;77.11;92581.31;5006257;28;20026;-78
2023/01/20 09:45:55;;;;;;;6.22;1.70;;;;;;;9.58;76.40;92587.16;5005719;28;20032;-77
2023/01/20 09:54:13;;;;;;;3.25;1.50;;;;;;;9.50;74.98;92577.41;5005782;28;20085;-81
2023/01/20 09:56:42;;;;;;;2.55;1.35;;;;;;;9.51;74.95;92563.03;5005557;28;20025;-79
2023/01/20 09:59:19;;;;;;;2.30;1.20;;;;;;;9.61;74.80;92554.56;5005583;28;20133;-79
2023/01/20 10:01:48;;;;;;;6.22;1.98;;;;;;;9.71;73.96;92537.31;5005164;28;20034;-77
2023/01/20 10:04:25;;;;;;;4.43;1.50;;;;;;;9.82;73.72;92549.03;5005142;28;20029;-79
2023/01/20 10:07:04;;;;;;;3.55;1.25;;;;;;;9.93;73.81;92551.97;5005363;28;20049;-79
2023/01/20 10:09:37;;;;;;;9.27;2.35;;;;;;;10.03;73.24;92551.47;5005408;28;20055;-80
2023/01/20 10:12:14;;;;;;;3.15;1.23;;;;;;;10.09;72.58;92531.47;5005311;28;20312;-80
2023/01/20 10:14:45;;;;;;;3.80;1.35;;;;;;;10.09;71.95;92528.06;5005394;28;20022;-78
2023/01/20 10:17:11;;;;;;;2.22;1.13;;;;;;;10.13;71.49;92503.06;5005265;28;20591;-85
2023/01/20 10:19:57;;;;;;;2.50;1.17;;;;;;;10.14;71.33;92493.97;5005378;28;20034;-85
2023/01/20 10:22:35;;;;;;;2.83;0.73;;;;;;;10.24;71.32;92490.03;5005302;28;20229;-84
2023/01/20 10:25:12;;;;;;;1.60;0.77;;;;;;;10.33;71.52;92503.97;5005035;28;20022;-84
2023/01/20 10:27:48;;;;;;;3.45;1.00;;;;;;;10.34;70.66;92515.38;5005049;28;20214;-80
2023/01/20 10:30:15;;;;;;;2.58;1.08;;;;;;;10.31;70.15;92518.75;5005113;28;20026;-81
2023/01/20 10:32:51;;;;;;;7.32;1.52;;;;;;;10.22;69.92;92514.34;5004934;28;20029;-80
2023/01/20 10:35:23;;;;;;;5.68;1.33;;;;;;;10.07;71.29;92519.63;5005014;28;20022;-80
2023/01/20 10:37:48;;;;;;;3.78;1.30;;;;;;;9.90;71.19;92510.09;5004609;28;20054;-78
2023/01/20 10:40:35;;;;;;;3.45;1.08;;;;;;;9.71;72.24;92514.19;5004696;28;20018;-78
2023/01/20 10:43:10;;;;;;;3.20;1.10;;;;;;;9.60;73.94;92513.09;5004739;28;20018;-81
2023/01/20 10:45:49;;;;;;;5.55;1.17;;;;;;;9.47;73.82;92503.66;5004339;28;20018;-78
2023/01/20 10:48:33;;;;;;;2.03;1.00;;;;;;;9.40;74.04;92501.53;5003370;28;20026;-82
2023/01/20 10:51:11;;;;;;;3.72;1.80;;;;;;;9.30;75.02;92508.13;5003218;28;20034;-80
2023/01/20 10:53:54;;;;;;;5.00;1.80;;;;;;;9.30;76.24;92517.97;5004432;28;20379;-82
2023/01/20 10:56:34;;;;;;;6.95;2.40;;;;;;;9.27;76.39;92521.31;5004599;28;20018;-83
2023/01/20 10:59:07;;;;;;;4.47;1.83;;;;;;;9.21;75.67;92518.88;5004567;28;20029;-85
2023/01/20 11:01:35;;;;;;;7.35;2.92;;;;;;;9.14;76.11;92520.56;5004249;28;20101;-81
2023/01/20 11:04:00;;;;;;;6.72;2.25;;;;;;;9.06;76.04;92501.00;5003991;28;20029;-79
2023/01/20 11:06:26;;;;;;;5.22;1.90;;;;;;;8.92;77.94;92506.66;5004126;28;20026;-81
2023/01/20 11:08:52;;;;;;;4.45;1.70;;;;;;;8.77;78.29;92515.31;5004096;28;20320;-80
2023/01/20 11:11:21;;;;;;;3.67;1.77;;;;;;;8.59;79.83;92507.59;5004466;28;20022;-80
2023/01/20 11:13:50;;;;;;;5.72;2.72;;;;;;;8.54;80.05;92497.19;5004186;28;20028;-87
2023/01/20 11:16:25;;;;;;;7.85;2.92;;;;;;;8.52;80.02;92510.03;5004416;28;20094;-78
2023/01/20 11:19:02;;;;;;;11.75;3.45;;;;;;;8.52;80.65;92525.94;5004244;28;20034;-80
2023/01/20 11:21:30;;;;;;;10.32;3.47;;;;;;;8.48;81.60;92517.09;5004181;28;20030;-81
2023/01/20 11:23:56;;;;;;;17.13;4.53;;;;;;;8.40;82.56;92502.03;5003950;28;20096;-80
2023/01/20 11:26:35;;;;;;;9.18;4.28;;;;;;;8.19;81.79;92502.13;5003744;28;20331;-85
2023/01/20 11:29:23;;;;;;;13.93;5.47;;;;;;;8.12;83.36;92507.19;5004127;28;20030;-84
2023/01/20 11:31:54;;;;;;;12.85;5.25;;;;;;;8.10;83.62;92504.91;5003743;28;20029;-84
2023/01/20 11:34:34;;;;;;;12.17;5.13;;;;;;;8.09;84.24;92500.69;5004064;28;20029;-84
2023/01/20 11:37:06;;;;;;;14.60;4.95;;;;;;;8.07;83.89;92497.59;5003509;28;20042;-82
2023/01/20 11:39:36;;;;;;;5.43;2.95;;;;;;;8.07;83.45;92496.81;5002869;28;20216;-80
2023/01/20 11:42:17;;;;;;;7.57;3.33;;;;;;;8.10;82.22;92493.50;5003767;28;20105;-77
2023/01/20 11:44:44;;;;;;;6.90;3.25;;;;;;;8.12;81.69;92499.25;5003514;28;20104;-79
2023/01/20 11:47:26;;;;;;;9.75;2.60;;;;;;;8.22;81.66;92507.56;5003572;28;20066;-80
2023/01/20 11:50:03;;;;;;;9.73;3.70;;;;;;;8.32;80.86;92506.31;5003576;28;20320;-81
2023/01/20 11:52:36;;;;;;;11.23;3.33;;;;;;;8.36;80.86;92509.09;5003662;28;20038;-89
2023/01/20 11:55:19;;;;;;;6.20;2.83;;;;;;;8.35;80.43;92502.25;5004293;28;20018;-88
2023/01/20 11:57:57;;;;;;;7.10;2.83;;;;;;;8.36;79.77;92504.56;5003675;28;20018;-89
2023/01/20 12:00:30;;;;;;;6.00;2.55;;;;;;;8.48;79.74;92511.78;5002809;28;20026;-83
2023/01/20 12:03:25;;;;;;;7.80;2.80;;;;;;;8.51;79.25;92521.75;5003015;28;20073;-82
2023/01/20 12:05:53;;;;;;;8.07;3.17;;;;;;;8.58;78.75;92521.19;5003267;28;20018;-82